Velkommen til

Stord Flyklubb

Om oss

Historien til Stord Flyklubb

Klubbens aner strekker seg tilbake til 1969 med sjøfly. Siden har vi sett vanlige motorfly og glidefly, men det er sportsfly som er hovedfokuset i dag

En kilometer vei vil ta deg en kilometer

En kilometer rullebane vil ta deg hvor enn du vil

Bli pilot

Alle kan lære å fly!

Ta en prøvetur hos oss og se hvor moro det er! Prøveturen gir deg en mulighet til å se om dette er noe du har lyst til å gå videre med.

Teorien tas av de fleste som hjemmeundervisning. Nytt læremateriell gjør opplæringen både enklere og mer strømlinjeformet.

Praksis kan påbegynnes mens man tar teorien, men teorien må være bestått før man kan fly solo. 

METAR Haugesund
ENHD 202150Z AUTO 32010KT 9999 FEW008/// OVC013/// 12/11 Q1006 RERA ENHD 202120Z AUTO 32010KT 9999 -DZ SCT007/// BKN011/// 12/11 Q1006 RERA ENHD 202050Z AUTO 33011KT 9000 -DZ BKN006/// 12/12 Q1005 ENHD 202020Z 34012KT 9000 -RA VV007 12/11 Q1005 RERA ENHD 201950Z 35013KT 9999 -DZ FEW007 12/11 Q1005 ENHD 201920Z 34012KT 9999 -RA NSC 12/11 Q1005 TAF ENHD 201700Z 2018/2021 34012KT 9999 FEW005 BKN030 TEMPO 2018/2021 4000 RA BR BKN006
METAR Flesland
ENBR 202150Z 32005KT 9999 -RA FEW004 BKN057 12/11 Q1005 RMK WIND 1200FT 32010KT ENBR 202120Z 35004KT 9999 -RA BKN059 OVC076 12/11 Q1005 RMK WIND 1200FT 35010KT ENBR 202050Z 35004KT 9999 -RA FEW005 SCT068 OVC088 12/12 Q1005 RMK WIND 1200FT 36011KT ENBR 202020Z 36006KT 9999 -RA FEW003 SCT010 BKN084 12/12 Q1005 RMK WIND 1200FT 01011KT ENBR 201950Z 36004KT 9000 -RA FEW008 SCT010 BKN090 13/12 Q1005 RMK WIND 1200FT 35010KT ENBR 201920Z 35005KT 9999 -RA SCT005 BKN088 13/12 Q1005 RMK WIND 1200FT 34015KT ENBR 2018/2118 34008KT 9999 -RA FEW010 BKN030 TEMPO 2021/2107 BKN006